Folla — LLPD — position and weather

sailwx.info

Track history (hours):
 
Tides and Currents Weather Stations Pressure Air Temp Water Temp Dewpoint Dewpoint Depression Visibility Wind Speed Wind Dir Waves Ship Positions

Folla

Last reported at 2014-Oct-24 07:29 UTC. Time now 2014-Oct-24 16:14 UTC.
Position N 66°32' E 012°59'.

Length 52 m; draft 5 m.

Type: Cargo ship. MMSI: 258253000.

Date/timePositionNaut miles runAvg speedWind from/ knotsBaromVisibWave heightAir tempDewpointWater temp
2014-Oct-24 07:29N 66°32' E 012°59'1010.5
2014-Oct-24 06:33N 66°24' E 012°46'4 4.4
2014-Oct-24 05:33N 66°25' E 012°35'7 6.8
2014-Oct-24 04:34N 66°20' E 012°23'1110.2
2014-Oct-24 03:28N 66°11' E 012°39'58 9.6
2014-Oct-23 21:28N 65°16' E 011°57'1011.0
2014-Oct-23 20:33N 65°06' E 011°48'1110.9
2014-Oct-23 19:33N 64°58' E 011°32'10 9.8
2014-Oct-23 18:33N 64°51' E 011°14'1110.1
2014-Oct-23 17:28N 64°41' E 011°07'7 0.3
2014-Oct-22 13:33N 64°48' E 011°06'5 5.2
2014-Oct-22 12:33N 64°52' E 011°14'0 0.1
2014-Oct-22 11:33N 64°52' E 011°15'0 0.0
2014-Oct-22 10:33N 64°52' E 011°15'0 0.1
2014-Oct-22 09:33N 64°52' E 011°14'0 0.0
2014-Oct-22 08:33N 64°52' E 011°14'0 0.0
2014-Oct-22 07:33N 64°52' E 011°14'0 0.0
2014-Oct-22 06:33N 64°52' E 011°14'0 0.0
2014-Oct-22 05:33N 64°52' E 011°14'0 0.0
2014-Oct-22 04:33N 64°52' E 011°14'0 0.0
2014-Oct-22 03:33N 64°52' E 011°14'0 0.0
2014-Oct-22 02:33N 64°52' E 011°14'0 0.0
2014-Oct-22 01:33N 64°52' E 011°14'0 0.0
2014-Oct-22 00:33N 64°52' E 011°14'0 0.0
2014-Oct-21 23:33N 64°52' E 011°14'0 0.0
2014-Oct-21 22:33N 64°52' E 011°14'0 0.3
2014-Oct-21 21:33N 64°52' E 011°15'1110.9
2014-Oct-21 20:33N 64°59' E 011°35'1110.7
2014-Oct-21 19:29N 65°08' E 011°49'74 7.8
2014-Oct-21 10:05N 66°17' E 012°55'610.8
2014-Oct-21 09:33N 66°23' E 012°57'40 3.6
2014-Oct-20 22:33N 66°59' E 013°36'1110.7
2014-Oct-20 21:32N 67°06' E 013°58'7 2.2
2014-Oct-20 18:33N 67°12' E 014°07'8 8.4
2014-Oct-20 17:33N 67°17' E 014°24'5 5.1
2014-Oct-20 16:33N 67°23' E 014°25'1010.1
2014-Oct-20 15:32N 67°33' E 014°30'157 6.0
2014-Oct-19 13:33N 69°36' E 018°55'4 0.2
2014-Oct-18 18:33N 69°40' E 018°59'2 1.1
2014-Oct-18 16:33N 69°38' E 018°57'236 6.9
2014-Oct-17 06:32N 66°27' E 012°45'81 9.0
2014-Oct-16 21:28N 65°09' E 011°50'1010.8
2014-Oct-16 20:33N 65°00' E 011°39'1111.2
2014-Oct-16 19:33N 64°53' E 011°19'8 7.7
2014-Oct-16 18:33N 64°48' E 011°06'2 0.1
2014-Oct-15 11:15N 64°45' E 011°06'710.3
2014-Oct-15 10:34N 64°52' E 011°14'0 0.2
2014-Oct-15 09:34N 64°52' E 011°15'2 2.4
2014-Oct-15 08:33N 64°53' E 011°19'4 3.5
2014-Oct-15 07:33N 64°56' E 011°24'79 8.6
2014-Oct-14 22:25N 66°07' E 012°46'1011.5
2014-Oct-14 21:32N 66°17' E 012°55'1211.8
2014-Oct-14 20:29N 66°29' E 012°59'32 3.6
2014-Oct-14 11:31N 66°58' E 013°33'1110.7
2014-Oct-14 10:29N 67°05' E 013°55'1010.7
2014-Oct-14 09:33N 67°13' E 014°10'7 6.8
2014-Oct-14 08:33N 67°17' E 014°24'7 7.2
2014-Oct-14 07:33N 67°22' E 014°09'  
Track history (hours):
 
Tides and Currents Weather Stations Pressure Air Temp Water Temp Dewpoint Dewpoint Depression Visibility Wind Speed Wind Dir Waves Ship Positions

Folla

Last reported at 2014-Oct-24 07:29 UTC. Time now 2014-Oct-24 16:14 UTC.
Position N 66°32' E 012°59'.

Length 52 m; draft 5 m.

Type: Cargo ship. MMSI: 258253000.

Date/timePositionNaut miles runAvg speedWind from/ knotsBaromVisibWave heightAir tempDewpointWater temp
2014-Oct-24 07:29N 66°32' E 012°59'1010.5
2014-Oct-24 06:33N 66°24' E 012°46'4 4.4
2014-Oct-24 05:33N 66°25' E 012°35'7 6.8
2014-Oct-24 04:34N 66°20' E 012°23'1110.2
2014-Oct-24 03:28N 66°11' E 012°39'58 9.6
2014-Oct-23 21:28N 65°16' E 011°57'1011.0
2014-Oct-23 20:33N 65°06' E 011°48'1110.9
2014-Oct-23 19:33N 64°58' E 011°32'10 9.8
2014-Oct-23 18:33N 64°51' E 011°14'1110.1
2014-Oct-23 17:28N 64°41' E 011°07'7 0.3
2014-Oct-22 13:33N 64°48' E 011°06'5 5.2
2014-Oct-22 12:33N 64°52' E 011°14'0 0.1
2014-Oct-22 11:33N 64°52' E 011°15'0 0.0
2014-Oct-22 10:33N 64°52' E 011°15'0 0.1
2014-Oct-22 09:33N 64°52' E 011°14'0 0.0
2014-Oct-22 08:33N 64°52' E 011°14'0 0.0
2014-Oct-22 07:33N 64°52' E 011°14'0 0.0
2014-Oct-22 06:33N 64°52' E 011°14'0 0.0
2014-Oct-22 05:33N 64°52' E 011°14'0 0.0
2014-Oct-22 04:33N 64°52' E 011°14'0 0.0
2014-Oct-22 03:33N 64°52' E 011°14'0 0.0
2014-Oct-22 02:33N 64°52' E 011°14'0 0.0
2014-Oct-22 01:33N 64°52' E 011°14'0 0.0
2014-Oct-22 00:33N 64°52' E 011°14'0 0.0
2014-Oct-21 23:33N 64°52' E 011°14'0 0.0
2014-Oct-21 22:33N 64°52' E 011°14'0 0.3
2014-Oct-21 21:33N 64°52' E 011°15'1110.9
2014-Oct-21 20:33N 64°59' E 011°35'1110.7
2014-Oct-21 19:29N 65°08' E 011°49'74 7.8
2014-Oct-21 10:05N 66°17' E 012°55'610.8
2014-Oct-21 09:33N 66°23' E 012°57'40 3.6
2014-Oct-20 22:33N 66°59' E 013°36'1110.7
2014-Oct-20 21:32N 67°06' E 013°58'7 2.2
2014-Oct-20 18:33N 67°12' E 014°07'8 8.4
2014-Oct-20 17:33N 67°17' E 014°24'5 5.1
2014-Oct-20 16:33N 67°23' E 014°25'1010.1
2014-Oct-20 15:32N 67°33' E 014°30'157 6.0
2014-Oct-19 13:33N 69°36' E 018°55'4 0.2
2014-Oct-18 18:33N 69°40' E 018°59'2 1.1
2014-Oct-18 16:33N 69°38' E 018°57'236 6.9
2014-Oct-17 06:32N 66°27' E 012°45'81 9.0
2014-Oct-16 21:28N 65°09' E 011°50'1010.8
2014-Oct-16 20:33N 65°00' E 011°39'1111.2
2014-Oct-16 19:33N 64°53' E 011°19'8 7.7
2014-Oct-16 18:33N 64°48' E 011°06'2 0.1
2014-Oct-15 11:15N 64°45' E 011°06'710.3
2014-Oct-15 10:34N 64°52' E 011°14'0 0.2
2014-Oct-15 09:34N 64°52' E 011°15'2 2.4
2014-Oct-15 08:33N 64°53' E 011°19'4 3.5
2014-Oct-15 07:33N 64°56' E 011°24'79 8.6
2014-Oct-14 22:25N 66°07' E 012°46'1011.5
2014-Oct-14 21:32N 66°17' E 012°55'1211.8
2014-Oct-14 20:29N 66°29' E 012°59'32 3.6
2014-Oct-14 11:31N 66°58' E 013°33'1110.7
2014-Oct-14 10:29N 67°05' E 013°55'1010.7
2014-Oct-14 09:33N 67°13' E 014°10'7 6.8
2014-Oct-14 08:33N 67°17' E 014°24'7 7.2
2014-Oct-14 07:33N 67°22' E 014°09'  

Dump ship's entire track history